CPX241 Details

Departure: Huntsville International Airport (KHSV)
Arrival: Miami International Airport (KMIA) at N/A
Route: RMG ATL YANTI Q89 PRMUS OMN HILEY7
Notes:


Current Weather Information
KHSV 231253Z 00000KT 10SM CLR 07/06 A3019 RMK AO2 SLP222 T00670061 $
KMIA 231253Z 05004KT 10SM FEW009 FEW020 SCT250 28/24 A3000 RMK AO2 SLP158 T02780239